sensor_id;sensor_type;location;lat;lon;timestamp;P1;durP1;ratioP1;P2;durP2;ratioP2
73113;SDS011;61301;51.956;5.876;2024-02-26T00:00:40;3.67;;;2.53;;
73113;SDS011;61301;51.956;5.876;2024-02-26T00:03:06;4.05;;;2.38;;
73113;SDS011;61301;51.956;5.876;2024-02-26T00:05:32;5.28;;;2.58;;
73113;SDS011;61301;51.956;5.876;2024-02-26T00:07:58;3.42;;;2.88;;
73113;SDS011;61301;51.956;5.876;2024-02-26T00:10:24;6.22;;;2.60;;
73113;SDS011;61301;51.956;5.876;2024-02-26T00:12:53;3.55;;;2.42;;
73113;SDS011;61301;51.956;5.876;2024-02-26T00:15:19;4.25;;;3.00;;
73113;SDS011;61301;51.956;5.876;2024-02-26T00:17:45;5.03;;;2.83;;
73113;SDS011;61301;51.956;5.876;2024-02-26T00:20:11;6.63;;;3.17;;
73113;SDS011;61301;51.956;5.876;2024-02-26T00:22:37;5.35;;;2.97;;
73113;SDS011;61301;51.956;5.876;2024-02-26T00:25:03;4.28;;;2.88;;
73113;SDS011;61301;51.956;5.876;2024-02-26T00:27:30;3.15;;;2.58;;
73113;SDS011;61301;51.956;5.876;2024-02-26T00:29:56;3.00;;;2.58;;
73113;SDS011;61301;51.956;5.876;2024-02-26T00:32:22;3.65;;;2.90;;
73113;SDS011;61301;51.956;5.876;2024-02-26T00:34:48;3.50;;;2.67;;
73113;SDS011;61301;51.956;5.876;2024-02-26T00:37:18;3.75;;;2.85;;
73113;SDS011;61301;51.956;5.876;2024-02-26T00:39:44;4.10;;;2.72;;
73113;SDS011;61301;51.956;5.876;2024-02-26T00:42:12;4.18;;;2.90;;
73113;SDS011;61301;51.956;5.876;2024-02-26T00:44:38;4.85;;;3.00;;
73113;SDS011;61301;51.956;5.876;2024-02-26T00:47:04;4.05;;;2.67;;
73113;SDS011;61301;51.956;5.876;2024-02-26T00:49:30;3.40;;;2.80;;
73113;SDS011;61301;51.956;5.876;2024-02-26T00:51:56;4.60;;;2.95;;
73113;SDS011;61301;51.956;5.876;2024-02-26T00:54:22;3.05;;;2.58;;
73113;SDS011;61301;51.956;5.876;2024-02-26T00:56:48;4.18;;;3.33;;
73113;SDS011;61301;51.956;5.876;2024-02-26T00:59:14;4.35;;;2.72;;
73113;SDS011;61301;51.956;5.876;2024-02-26T01:01:40;3.45;;;2.58;;
73113;SDS011;61301;51.956;5.876;2024-02-26T01:04:09;3.15;;;2.55;;
73113;SDS011;61301;51.956;5.876;2024-02-26T01:06:35;3.80;;;2.72;;
73113;SDS011;61301;51.956;5.876;2024-02-26T01:09:01;5.10;;;2.88;;
73113;SDS011;61301;51.956;5.876;2024-02-26T01:11:27;2.70;;;2.50;;
73113;SDS011;61301;51.956;5.876;2024-02-26T01:13:53;3.35;;;2.70;;
73113;SDS011;61301;51.956;5.876;2024-02-26T01:16:24;3.83;;;2.90;;
73113;SDS011;61301;51.956;5.876;2024-02-26T01:18:50;4.68;;;3.17;;
73113;SDS011;61301;51.956;5.876;2024-02-26T01:21:16;2.83;;;2.38;;
73113;SDS011;61301;51.956;5.876;2024-02-26T01:23:42;5.60;;;3.95;;
73113;SDS011;61301;51.956;5.876;2024-02-26T01:26:08;8.25;;;4.88;;
73113;SDS011;61301;51.956;5.876;2024-02-26T01:28:34;9.25;;;6.05;;
73113;SDS011;61301;51.956;5.876;2024-02-26T01:31:00;10.57;;;6.60;;
73113;SDS011;61301;51.956;5.876;2024-02-26T01:33:26;10.98;;;6.60;;
73113;SDS011;61301;51.956;5.876;2024-02-26T01:35:52;11.65;;;7.15;;
73113;SDS011;61301;51.956;5.876;2024-02-26T01:38:18;12.95;;;6.40;;
73113;SDS011;61301;51.956;5.876;2024-02-26T01:40:44;6.35;;;3.60;;
73113;SDS011;61301;51.956;5.876;2024-02-26T01:43:13;3.92;;;2.40;;
73113;SDS011;61301;51.956;5.876;2024-02-26T01:45:45;4.78;;;2.03;;
73113;SDS011;61301;51.956;5.876;2024-02-26T01:48:12;3.55;;;1.98;;
73113;SDS011;61301;51.956;5.876;2024-02-26T01:50:38;2.38;;;2.15;;
73113;SDS011;61301;51.956;5.876;2024-02-26T01:53:05;3.20;;;1.83;;
73113;SDS011;61301;51.956;5.876;2024-02-26T01:55:32;3.78;;;1.67;;
73113;SDS011;61301;51.956;5.876;2024-02-26T01:57:59;2.53;;;2.08;;
73113;SDS011;61301;51.956;5.876;2024-02-26T02:00:25;3.80;;;1.77;;
73113;SDS011;61301;51.956;5.876;2024-02-26T02:02:51;3.08;;;2.00;;
73113;SDS011;61301;51.956;5.876;2024-02-26T02:05:20;3.20;;;2.45;;
73113;SDS011;61301;51.956;5.876;2024-02-26T02:07:48;7.78;;;2.78;;
73113;SDS011;61301;51.956;5.876;2024-02-26T02:10:15;2.95;;;2.65;;
73113;SDS011;61301;51.956;5.876;2024-02-26T02:12:42;5.40;;;3.13;;
73113;SDS011;61301;51.956;5.876;2024-02-26T02:15:12;5.75;;;3.05;;
73113;SDS011;61301;51.956;5.876;2024-02-26T02:17:38;4.25;;;2.92;;
73113;SDS011;61301;51.956;5.876;2024-02-26T02:20:04;3.90;;;2.80;;
73113;SDS011;61301;51.956;5.876;2024-02-26T02:22:34;3.55;;;2.92;;
73113;SDS011;61301;51.956;5.876;2024-02-26T02:25:00;3.60;;;2.90;;
73113;SDS011;61301;51.956;5.876;2024-02-26T02:27:27;4.30;;;3.22;;
73113;SDS011;61301;51.956;5.876;2024-02-26T02:29:53;3.50;;;2.80;;
73113;SDS011;61301;51.956;5.876;2024-02-26T02:32:19;4.93;;;3.50;;
73113;SDS011;61301;51.956;5.876;2024-02-26T02:34:46;5.15;;;2.75;;
73113;SDS011;61301;51.956;5.876;2024-02-26T02:37:12;6.03;;;3.50;;
73113;SDS011;61301;51.956;5.876;2024-02-26T02:39:38;5.15;;;2.78;;
73113;SDS011;61301;51.956;5.876;2024-02-26T02:42:05;3.92;;;3.38;;
73113;SDS011;61301;51.956;5.876;2024-02-26T02:44:31;4.85;;;3.17;;
73113;SDS011;61301;51.956;5.876;2024-02-26T02:46:57;4.18;;;3.08;;
73113;SDS011;61301;51.956;5.876;2024-02-26T02:49:23;3.05;;;2.67;;
73113;SDS011;61301;51.956;5.876;2024-02-26T02:51:49;3.80;;;3.40;;
73113;SDS011;61301;51.956;5.876;2024-02-26T02:54:18;4.22;;;2.97;;
73113;SDS011;61301;51.956;5.876;2024-02-26T02:56:44;5.88;;;3.28;;
73113;SDS011;61301;51.956;5.876;2024-02-26T02:59:10;4.35;;;3.30;;
73113;SDS011;61301;51.956;5.876;2024-02-26T03:01:36;3.20;;;2.90;;
73113;SDS011;61301;51.956;5.876;2024-02-26T03:04:02;4.72;;;2.90;;
73113;SDS011;61301;51.956;5.876;2024-02-26T03:06:31;5.63;;;2.80;;
73113;SDS011;61301;51.956;5.876;2024-02-26T03:08:57;3.15;;;2.85;;
73113;SDS011;61301;51.956;5.876;2024-02-26T03:11:26;3.65;;;2.90;;
73113;SDS011;61301;51.956;5.876;2024-02-26T03:13:52;4.10;;;3.20;;
73113;SDS011;61301;51.956;5.876;2024-02-26T03:16:18;4.07;;;2.70;;
73113;SDS011;61301;51.956;5.876;2024-02-26T03:18:44;4.95;;;3.00;;
73113;SDS011;61301;51.956;5.876;2024-02-26T03:21:10;4.47;;;3.08;;
73113;SDS011;61301;51.956;5.876;2024-02-26T03:23:36;4.32;;;3.00;;
73113;SDS011;61301;51.956;5.876;2024-02-26T03:26:03;3.25;;;2.88;;
73113;SDS011;61301;51.956;5.876;2024-02-26T03:28:29;3.97;;;2.83;;
73113;SDS011;61301;51.956;5.876;2024-02-26T03:31:01;4.30;;;3.25;;
73113;SDS011;61301;51.956;5.876;2024-02-26T03:33:27;4.97;;;3.50;;
73113;SDS011;61301;51.956;5.876;2024-02-26T03:35:53;4.68;;;3.00;;
73113;SDS011;61301;51.956;5.876;2024-02-26T03:38:19;3.42;;;2.83;;
73113;SDS011;61301;51.956;5.876;2024-02-26T03:40:48;2.45;;;2.17;;
73113;SDS011;61301;51.956;5.876;2024-02-26T03:43:14;3.80;;;2.78;;
73113;SDS011;61301;51.956;5.876;2024-02-26T03:45:40;3.85;;;2.72;;
73113;SDS011;61301;51.956;5.876;2024-02-26T03:48:06;3.75;;;3.22;;
73113;SDS011;61301;51.956;5.876;2024-02-26T03:50:33;3.00;;;2.10;;
73113;SDS011;61301;51.956;5.876;2024-02-26T03:53:00;3.60;;;3.13;;
73113;SDS011;61301;51.956;5.876;2024-02-26T03:55:26;3.47;;;2.60;;
73113;SDS011;61301;51.956;5.876;2024-02-26T03:57:52;3.53;;;2.65;;
73113;SDS011;61301;51.956;5.876;2024-02-26T04:00:19;3.92;;;2.30;;
73113;SDS011;61301;51.956;5.876;2024-02-26T04:02:46;3.15;;;2.17;;
73113;SDS011;61301;51.956;5.876;2024-02-26T04:05:13;3.17;;;2.15;;
73113;SDS011;61301;51.956;5.876;2024-02-26T04:07:39;3.38;;;2.90;;
73113;SDS011;61301;51.956;5.876;2024-02-26T04:10:09;2.28;;;2.08;;
73113;SDS011;61301;51.956;5.876;2024-02-26T04:12:37;2.70;;;2.20;;
73113;SDS011;61301;51.956;5.876;2024-02-26T04:15:05;2.47;;;2.28;;
73113;SDS011;61301;51.956;5.876;2024-02-26T04:17:35;4.65;;;2.30;;
73113;SDS011;61301;51.956;5.876;2024-02-26T04:20:02;4.05;;;2.72;;
73113;SDS011;61301;51.956;5.876;2024-02-26T04:22:29;3.63;;;2.35;;
73113;SDS011;61301;51.956;5.876;2024-02-26T04:24:55;3.30;;;2.30;;
73113;SDS011;61301;51.956;5.876;2024-02-26T04:27:21;3.22;;;2.75;;
73113;SDS011;61301;51.956;5.876;2024-02-26T04:29:47;5.10;;;3.30;;
73113;SDS011;61301;51.956;5.876;2024-02-26T04:32:13;6.80;;;3.25;;
73113;SDS011;61301;51.956;5.876;2024-02-26T04:34:39;6.25;;;4.00;;
73113;SDS011;61301;51.956;5.876;2024-02-26T04:37:05;3.85;;;3.28;;
73113;SDS011;61301;51.956;5.876;2024-02-26T04:39:31;3.30;;;3.00;;
73113;SDS011;61301;51.956;5.876;2024-02-26T04:41:57;3.75;;;3.38;;
73113;SDS011;61301;51.956;5.876;2024-02-26T04:44:23;4.82;;;3.55;;
73113;SDS011;61301;51.956;5.876;2024-02-26T04:46:49;5.63;;;4.30;;
73113;SDS011;61301;51.956;5.876;2024-02-26T04:49:15;7.35;;;3.90;;
73113;SDS011;61301;51.956;5.876;2024-02-26T04:51:41;5.90;;;4.05;;
73113;SDS011;61301;51.956;5.876;2024-02-26T04:54:07;3.40;;;3.03;;
73113;SDS011;61301;51.956;5.876;2024-02-26T04:56:33;4.35;;;3.88;;
73113;SDS011;61301;51.956;5.876;2024-02-26T04:58:59;6.05;;;3.78;;
73113;SDS011;61301;51.956;5.876;2024-02-26T05:01:25;3.72;;;3.30;;
73113;SDS011;61301;51.956;5.876;2024-02-26T05:03:51;6.30;;;3.58;;
73113;SDS011;61301;51.956;5.876;2024-02-26T05:06:17;4.63;;;3.83;;
73113;SDS011;61301;51.956;5.876;2024-02-26T05:08:43;4.05;;;3.40;;
73113;SDS011;61301;51.956;5.876;2024-02-26T05:11:10;4.97;;;3.92;;
73113;SDS011;61301;51.956;5.876;2024-02-26T05:13:36;4.15;;;3.10;;
73113;SDS011;61301;51.956;5.876;2024-02-26T05:16:02;3.88;;;3.35;;
73113;SDS011;61301;51.956;5.876;2024-02-26T05:18:28;3.85;;;3.45;;
73113;SDS011;61301;51.956;5.876;2024-02-26T05:20:54;5.03;;;3.22;;
73113;SDS011;61301;51.956;5.876;2024-02-26T05:23:20;4.55;;;3.40;;
73113;SDS011;61301;51.956;5.876;2024-02-26T05:25:46;4.45;;;3.72;;
73113;SDS011;61301;51.956;5.876;2024-02-26T05:28:13;5.13;;;3.65;;
73113;SDS011;61301;51.956;5.876;2024-02-26T05:30:42;5.43;;;3.80;;
73113;SDS011;61301;51.956;5.876;2024-02-26T05:33:11;5.38;;;3.42;;
73113;SDS011;61301;51.956;5.876;2024-02-26T05:35:37;4.63;;;3.67;;
73113;SDS011;61301;51.956;5.876;2024-02-26T05:38:03;5.35;;;3.95;;
73113;SDS011;61301;51.956;5.876;2024-02-26T05:40:29;4.07;;;3.58;;
73113;SDS011;61301;51.956;5.876;2024-02-26T05:42:55;4.75;;;4.10;;
73113;SDS011;61301;51.956;5.876;2024-02-26T05:45:21;4.70;;;3.95;;
73113;SDS011;61301;51.956;5.876;2024-02-26T05:47:47;4.78;;;4.28;;
73113;SDS011;61301;51.956;5.876;2024-02-26T05:50:15;4.57;;;4.07;;
73113;SDS011;61301;51.956;5.876;2024-02-26T05:52:41;5.35;;;3.95;;
73113;SDS011;61301;51.956;5.876;2024-02-26T05:55:08;6.05;;;4.68;;
73113;SDS011;61301;51.956;5.876;2024-02-26T05:57:34;4.85;;;3.67;;
73113;SDS011;61301;51.956;5.876;2024-02-26T06:00:01;4.93;;;4.05;;
73113;SDS011;61301;51.956;5.876;2024-02-26T06:02:37;6.57;;;4.22;;
73113;SDS011;61301;51.956;5.876;2024-02-26T06:05:03;5.05;;;4.40;;
73113;SDS011;61301;51.956;5.876;2024-02-26T06:07:29;5.60;;;3.65;;
73113;SDS011;61301;51.956;5.876;2024-02-26T06:09:55;5.07;;;4.43;;
73113;SDS011;61301;51.956;5.876;2024-02-26T06:12:21;4.38;;;3.85;;
73113;SDS011;61301;51.956;5.876;2024-02-26T06:14:47;4.63;;;3.88;;
73113;SDS011;61301;51.956;5.876;2024-02-26T06:17:13;4.63;;;4.10;;
73113;SDS011;61301;51.956;5.876;2024-02-26T06:19:39;6.32;;;4.35;;
73113;SDS011;61301;51.956;5.876;2024-02-26T06:22:05;4.43;;;3.78;;
73113;SDS011;61301;51.956;5.876;2024-02-26T06:24:31;3.72;;;3.17;;
73113;SDS011;61301;51.956;5.876;2024-02-26T06:26:57;4.40;;;3.60;;
73113;SDS011;61301;51.956;5.876;2024-02-26T06:29:23;4.07;;;3.33;;
73113;SDS011;61301;51.956;5.876;2024-02-26T06:31:52;4.32;;;3.83;;
73113;SDS011;61301;51.956;5.876;2024-02-26T06:34:18;3.78;;;3.47;;
73113;SDS011;61301;51.956;5.876;2024-02-26T06:36:44;4.35;;;3.38;;
73113;SDS011;61301;51.956;5.876;2024-02-26T06:39:11;4.75;;;3.50;;
73113;SDS011;61301;51.956;5.876;2024-02-26T06:41:38;5.10;;;3.60;;
73113;SDS011;61301;51.956;5.876;2024-02-26T06:44:05;4.35;;;2.80;;
73113;SDS011;61301;51.956;5.876;2024-02-26T06:46:31;4.50;;;3.70;;
73113;SDS011;61301;51.956;5.876;2024-02-26T06:48:57;4.78;;;3.97;;
73113;SDS011;61301;51.956;5.876;2024-02-26T06:51:23;4.75;;;4.25;;
73113;SDS011;61301;51.956;5.876;2024-02-26T06:53:52;6.22;;;3.65;;
73113;SDS011;61301;51.956;5.876;2024-02-26T06:56:19;5.25;;;4.20;;
73113;SDS011;61301;51.956;5.876;2024-02-26T06:58:45;6.13;;;3.67;;
73113;SDS011;61301;51.956;5.876;2024-02-26T07:01:12;3.85;;;3.45;;
73113;SDS011;61301;51.956;5.876;2024-02-26T07:03:40;4.68;;;4.00;;
73113;SDS011;61301;51.956;5.876;2024-02-26T07:06:06;6.07;;;4.18;;
73113;SDS011;61301;51.956;5.876;2024-02-26T07:08:32;5.57;;;4.85;;
73113;SDS011;61301;51.956;5.876;2024-02-26T07:10:58;5.43;;;4.68;;
73113;SDS011;61301;51.956;5.876;2024-02-26T07:13:24;5.65;;;4.88;;
73113;SDS011;61301;51.956;5.876;2024-02-26T07:15:50;6.43;;;4.75;;
73113;SDS011;61301;51.956;5.876;2024-02-26T07:18:16;6.68;;;5.10;;
73113;SDS011;61301;51.956;5.876;2024-02-26T07:20:42;7.55;;;4.97;;
73113;SDS011;61301;51.956;5.876;2024-02-26T07:23:08;6.88;;;5.03;;
73113;SDS011;61301;51.956;5.876;2024-02-26T07:25:34;6.32;;;5.10;;
73113;SDS011;61301;51.956;5.876;2024-02-26T07:28:06;6.95;;;5.38;;
73113;SDS011;61301;51.956;5.876;2024-02-26T07:30:32;6.05;;;4.95;;
73113;SDS011;61301;51.956;5.876;2024-02-26T07:32:58;7.88;;;6.07;;
73113;SDS011;61301;51.956;5.876;2024-02-26T07:35:27;6.32;;;5.30;;
73113;SDS011;61301;51.956;5.876;2024-02-26T07:37:53;6.05;;;5.30;;
73113;SDS011;61301;51.956;5.876;2024-02-26T07:40:19;8.68;;;6.68;;
73113;SDS011;61301;51.956;5.876;2024-02-26T07:42:45;8.65;;;6.78;;
73113;SDS011;61301;51.956;5.876;2024-02-26T07:45:12;8.25;;;7.03;;
73113;SDS011;61301;51.956;5.876;2024-02-26T07:47:41;8.38;;;6.63;;
73113;SDS011;61301;51.956;5.876;2024-02-26T07:50:07;10.48;;;7.32;;
73113;SDS011;61301;51.956;5.876;2024-02-26T07:52:34;9.75;;;7.85;;
73113;SDS011;61301;51.956;5.876;2024-02-26T07:55:00;8.43;;;7.10;;
73113;SDS011;61301;51.956;5.876;2024-02-26T07:57:26;10.32;;;7.68;;
73113;SDS011;61301;51.956;5.876;2024-02-26T07:59:52;10.35;;;7.53;;
73113;SDS011;61301;51.956;5.876;2024-02-26T08:02:18;9.93;;;7.88;;
73113;SDS011;61301;51.956;5.876;2024-02-26T08:04:44;10.07;;;8.43;;
73113;SDS011;61301;51.956;5.876;2024-02-26T08:07:10;11.50;;;8.38;;
73113;SDS011;61301;51.956;5.876;2024-02-26T08:09:36;12.15;;;9.38;;
73113;SDS011;61301;51.956;5.876;2024-02-26T08:12:02;10.75;;;8.23;;
73113;SDS011;61301;51.956;5.876;2024-02-26T08:14:29;13.15;;;9.55;;
73113;SDS011;61301;51.956;5.876;2024-02-26T08:16:55;11.73;;;8.75;;
73113;SDS011;61301;51.956;5.876;2024-02-26T08:19:21;10.82;;;8.65;;
73113;SDS011;61301;51.956;5.876;2024-02-26T08:21:47;12.90;;;9.00;;
73113;SDS011;61301;51.956;5.876;2024-02-26T08:24:12;13.75;;;9.07;;
73113;SDS011;61301;51.956;5.876;2024-02-26T08:26:39;12.25;;;9.15;;
73113;SDS011;61301;51.956;5.876;2024-02-26T08:29:05;12.23;;;10.02;;
73113;SDS011;61301;51.956;5.876;2024-02-26T08:31:30;12.18;;;8.95;;
73113;SDS011;61301;51.956;5.876;2024-02-26T08:33:57;12.70;;;9.93;;
73113;SDS011;61301;51.956;5.876;2024-02-26T08:36:24;11.57;;;8.77;;
73113;SDS011;61301;51.956;5.876;2024-02-26T08:38:50;11.10;;;8.23;;
73113;SDS011;61301;51.956;5.876;2024-02-26T08:41:16;12.13;;;9.50;;
73113;SDS011;61301;51.956;5.876;2024-02-26T08:43:42;12.32;;;9.00;;
73113;SDS011;61301;51.956;5.876;2024-02-26T08:46:08;12.43;;;9.05;;
73113;SDS011;61301;51.956;5.876;2024-02-26T08:48:36;13.60;;;10.43;;
73113;SDS011;61301;51.956;5.876;2024-02-26T08:51:04;13.35;;;9.35;;
73113;SDS011;61301;51.956;5.876;2024-02-26T08:53:32;10.30;;;8.32;;
73113;SDS011;61301;51.956;5.876;2024-02-26T08:55:58;11.63;;;9.13;;
73113;SDS011;61301;51.956;5.876;2024-02-26T08:58:24;13.75;;;9.48;;
73113;SDS011;61301;51.956;5.876;2024-02-26T09:00:50;12.10;;;8.77;;
73113;SDS011;61301;51.956;5.876;2024-02-26T09:03:16;11.07;;;8.18;;
73113;SDS011;61301;51.956;5.876;2024-02-26T09:05:42;15.45;;;10.30;;
73113;SDS011;61301;51.956;5.876;2024-02-26T09:08:11;15.43;;;11.00;;
73113;SDS011;61301;51.956;5.876;2024-02-26T09:10:38;14.50;;;10.48;;
73113;SDS011;61301;51.956;5.876;2024-02-26T09:13:07;13.07;;;9.27;;
73113;SDS011;61301;51.956;5.876;2024-02-26T09:15:33;12.88;;;9.48;;
73113;SDS011;61301;51.956;5.876;2024-02-26T09:17:59;14.60;;;10.10;;
73113;SDS011;61301;51.956;5.876;2024-02-26T09:20:25;13.23;;;9.32;;
73113;SDS011;61301;51.956;5.876;2024-02-26T09:22:51;15.20;;;10.90;;
73113;SDS011;61301;51.956;5.876;2024-02-26T09:25:17;16.08;;;11.02;;
73113;SDS011;61301;51.956;5.876;2024-02-26T09:27:44;16.45;;;11.15;;
73113;SDS011;61301;51.956;5.876;2024-02-26T09:30:10;16.42;;;11.07;;
73113;SDS011;61301;51.956;5.876;2024-02-26T09:32:37;14.57;;;10.68;;
73113;SDS011;61301;51.956;5.876;2024-02-26T09:35:04;16.00;;;11.13;;
73113;SDS011;61301;51.956;5.876;2024-02-26T09:37:34;17.25;;;11.45;;
73113;SDS011;61301;51.956;5.876;2024-02-26T09:40:03;16.80;;;11.15;;
73113;SDS011;61301;51.956;5.876;2024-02-26T09:42:30;18.70;;;11.90;;
73113;SDS011;61301;51.956;5.876;2024-02-26T09:44:59;18.95;;;12.40;;
73113;SDS011;61301;51.956;5.876;2024-02-26T09:47:30;13.70;;;9.65;;
73113;SDS011;61301;51.956;5.876;2024-02-26T09:49:57;15.40;;;10.88;;
73113;SDS011;61301;51.956;5.876;2024-02-26T09:52:26;18.27;;;11.98;;
73113;SDS011;61301;51.956;5.876;2024-02-26T09:54:56;14.63;;;10.00;;
73113;SDS011;61301;51.956;5.876;2024-02-26T09:57:22;16.67;;;11.32;;
73113;SDS011;61301;51.956;5.876;2024-02-26T09:59:51;16.35;;;11.35;;
73113;SDS011;61301;51.956;5.876;2024-02-26T10:02:19;16.27;;;10.25;;
73113;SDS011;61301;51.956;5.876;2024-02-26T10:04:47;12.90;;;9.88;;
73113;SDS011;61301;51.956;5.876;2024-02-26T10:07:16;14.75;;;9.57;;
73113;SDS011;61301;51.956;5.876;2024-02-26T10:09:42;13.52;;;10.43;;
73113;SDS011;61301;51.956;5.876;2024-02-26T10:12:08;13.52;;;9.25;;
73113;SDS011;61301;51.956;5.876;2024-02-26T10:14:37;13.27;;;9.82;;
73113;SDS011;61301;51.956;5.876;2024-02-26T10:17:04;12.02;;;8.93;;
73113;SDS011;61301;51.956;5.876;2024-02-26T10:19:34;15.70;;;10.73;;
73113;SDS011;61301;51.956;5.876;2024-02-26T10:22:00;11.20;;;8.80;;
73113;SDS011;61301;51.956;5.876;2024-02-26T10:24:27;11.63;;;8.85;;
73113;SDS011;61301;51.956;5.876;2024-02-26T10:26:54;15.10;;;9.88;;
73113;SDS011;61301;51.956;5.876;2024-02-26T10:29:22;13.90;;;10.18;;
73113;SDS011;61301;51.956;5.876;2024-02-26T10:31:50;12.02;;;8.95;;
73113;SDS011;61301;51.956;5.876;2024-02-26T10:34:16;13.52;;;9.75;;
73113;SDS011;61301;51.956;5.876;2024-02-26T10:36:42;12.20;;;9.27;;
73113;SDS011;61301;51.956;5.876;2024-02-26T10:39:09;11.98;;;9.23;;
73113;SDS011;61301;51.956;5.876;2024-02-26T10:41:37;13.48;;;10.00;;
73113;SDS011;61301;51.956;5.876;2024-02-26T10:44:04;12.50;;;9.43;;
73113;SDS011;61301;51.956;5.876;2024-02-26T10:46:30;12.02;;;8.82;;
73113;SDS011;61301;51.956;5.876;2024-02-26T10:48:56;11.48;;;8.68;;
73113;SDS011;61301;51.956;5.876;2024-02-26T10:51:26;13.35;;;9.05;;
73113;SDS011;61301;51.956;5.876;2024-02-26T10:53:57;14.52;;;9.77;;
73113;SDS011;61301;51.956;5.876;2024-02-26T10:56:26;13.50;;;9.88;;
73113;SDS011;61301;51.956;5.876;2024-02-26T10:58:57;14.15;;;9.77;;
73113;SDS011;61301;51.956;5.876;2024-02-26T11:01:24;11.80;;;9.88;;
73113;SDS011;61301;51.956;5.876;2024-02-26T11:03:55;12.75;;;9.02;;
73113;SDS011;61301;51.956;5.876;2024-02-26T11:06:21;15.20;;;10.05;;
73113;SDS011;61301;51.956;5.876;2024-02-26T11:08:48;12.63;;;9.18;;
73113;SDS011;61301;51.956;5.876;2024-02-26T11:11:16;11.40;;;8.63;;
73113;SDS011;61301;51.956;5.876;2024-02-26T11:13:44;13.43;;;10.20;;
73113;SDS011;61301;51.956;5.876;2024-02-26T11:16:16;14.90;;;10.45;;
73113;SDS011;61301;51.956;5.876;2024-02-26T11:18:49;12.75;;;9.73;;
73113;SDS011;61301;51.956;5.876;2024-02-26T11:21:15;11.60;;;8.82;;
73113;SDS011;61301;51.956;5.876;2024-02-26T11:23:44;11.43;;;8.82;;
73113;SDS011;61301;51.956;5.876;2024-02-26T11:26:11;13.65;;;9.55;;
73113;SDS011;61301;51.956;5.876;2024-02-26T11:28:39;12.07;;;9.40;;
73113;SDS011;61301;51.956;5.876;2024-02-26T11:31:07;14.50;;;11.23;;
73113;SDS011;61301;51.956;5.876;2024-02-26T11:33:34;12.80;;;9.43;;
73113;SDS011;61301;51.956;5.876;2024-02-26T11:36:02;12.93;;;9.30;;
73113;SDS011;61301;51.956;5.876;2024-02-26T11:38:33;11.50;;;8.95;;
73113;SDS011;61301;51.956;5.876;2024-02-26T11:40:59;9.50;;;7.63;;
73113;SDS011;61301;51.956;5.876;2024-02-26T11:46:31;11.60;;;8.55;;
73113;SDS011;61301;51.956;5.876;2024-02-26T11:51:54;9.50;;;7.85;;
73113;SDS011;61301;51.956;5.876;2024-02-26T12:02:44;10.88;;;8.55;;
73113;SDS011;61301;51.956;5.876;2024-02-26T12:05:20;9.70;;;7.57;;
73113;SDS011;61301;51.956;5.876;2024-02-26T12:07:50;11.55;;;8.32;;
73113;SDS011;61301;51.956;5.876;2024-02-26T12:12:54;10.10;;;8.20;;
73113;SDS011;61301;51.956;5.876;2024-02-26T12:15:24;11.82;;;8.35;;
73113;SDS011;61301;51.956;5.876;2024-02-26T12:17:52;9.05;;;7.13;;
73113;SDS011;61301;51.956;5.876;2024-02-26T12:20:18;9.60;;;7.63;;
73113;SDS011;61301;51.956;5.876;2024-02-26T12:22:45;9.85;;;7.57;;
73113;SDS011;61301;51.956;5.876;2024-02-26T12:25:15;8.65;;;7.00;;
73113;SDS011;61301;51.956;5.876;2024-02-26T12:27:41;8.18;;;5.97;;
73113;SDS011;61301;51.956;5.876;2024-02-26T12:30:08;11.07;;;7.10;;
73113;SDS011;61301;51.956;5.876;2024-02-26T12:32:35;10.43;;;8.27;;
73113;SDS011;61301;51.956;5.876;2024-02-26T12:35:01;9.40;;;6.65;;
73113;SDS011;61301;51.956;5.876;2024-02-26T12:37:30;8.57;;;6.13;;
73113;SDS011;61301;51.956;5.876;2024-02-26T12:39:56;8.15;;;6.53;;
73113;SDS011;61301;51.956;5.876;2024-02-26T12:42:22;8.30;;;6.40;;
73113;SDS011;61301;51.956;5.876;2024-02-26T12:44:49;8.40;;;6.47;;
73113;SDS011;61301;51.956;5.876;2024-02-26T12:47:15;10.65;;;7.03;;
73113;SDS011;61301;51.956;5.876;2024-02-26T12:49:42;8.57;;;6.20;;
73113;SDS011;61301;51.956;5.876;2024-02-26T12:52:10;8.40;;;6.40;;
73113;SDS011;61301;51.956;5.876;2024-02-26T12:54:36;6.78;;;5.00;;
73113;SDS011;61301;51.956;5.876;2024-02-26T12:57:06;8.43;;;5.18;;
73113;SDS011;61301;51.956;5.876;2024-02-26T12:59:34;7.60;;;5.75;;
73113;SDS011;61301;51.956;5.876;2024-02-26T13:02:00;8.73;;;5.82;;
73113;SDS011;61301;51.956;5.876;2024-02-26T13:04:27;8.07;;;6.10;;
73113;SDS011;61301;51.956;5.876;2024-02-26T13:06:55;8.48;;;5.68;;
73113;SDS011;61301;51.956;5.876;2024-02-26T13:09:21;8.73;;;6.03;;
73113;SDS011;61301;51.956;5.876;2024-02-26T13:11:54;6.97;;;5.68;;
73113;SDS011;61301;51.956;5.876;2024-02-26T13:14:21;6.47;;;5.10;;
73113;SDS011;61301;51.956;5.876;2024-02-26T13:17:00;8.48;;;6.50;;
73113;SDS011;61301;51.956;5.876;2024-02-26T13:19:26;6.57;;;5.75;;
73113;SDS011;61301;51.956;5.876;2024-02-26T13:21:53;10.30;;;6.35;;
73113;SDS011;61301;51.956;5.876;2024-02-26T13:24:20;9.15;;;6.78;;
73113;SDS011;61301;51.956;5.876;2024-02-26T13:26:54;9.63;;;7.30;;
73113;SDS011;61301;51.956;5.876;2024-02-26T13:29:20;6.78;;;5.72;;
73113;SDS011;61301;51.956;5.876;2024-02-26T13:31:46;8.13;;;6.18;;
73113;SDS011;61301;51.956;5.876;2024-02-26T13:34:22;5.93;;;5.20;;
73113;SDS011;61301;51.956;5.876;2024-02-26T13:36:53;7.63;;;5.97;;
73113;SDS011;61301;51.956;5.876;2024-02-26T13:41:49;6.43;;;5.22;;
73113;SDS011;61301;51.956;5.876;2024-02-26T13:44:16;7.13;;;5.68;;
73113;SDS011;61301;51.956;5.876;2024-02-26T13:46:42;6.88;;;5.88;;
73113;SDS011;61301;51.956;5.876;2024-02-26T13:49:08;7.60;;;5.88;;
73113;SDS011;61301;51.956;5.876;2024-02-26T13:51:36;8.57;;;6.25;;
73113;SDS011;61301;51.956;5.876;2024-02-26T13:54:03;7.93;;;5.82;;
73113;SDS011;61301;51.956;5.876;2024-02-26T13:56:29;8.30;;;6.78;;
73113;SDS011;61301;51.956;5.876;2024-02-26T13:58:59;7.60;;;6.15;;
73113;SDS011;61301;51.956;5.876;2024-02-26T14:01:25;7.10;;;6.15;;
73113;SDS011;61301;51.956;5.876;2024-02-26T14:03:51;7.65;;;6.10;;
73113;SDS011;61301;51.956;5.876;2024-02-26T14:06:20;8.07;;;6.15;;
73113;SDS011;61301;51.956;5.876;2024-02-26T14:08:46;9.50;;;7.00;;
73113;SDS011;61301;51.956;5.876;2024-02-26T14:11:12;7.18;;;6.40;;
73113;SDS011;61301;51.956;5.876;2024-02-26T14:13:39;7.75;;;6.95;;
73113;SDS011;61301;51.956;5.876;2024-02-26T14:16:05;8.68;;;6.80;;
73113;SDS011;61301;51.956;5.876;2024-02-26T14:18:31;9.18;;;6.85;;
73113;SDS011;61301;51.956;5.876;2024-02-26T14:20:57;8.10;;;7.22;;
73113;SDS011;61301;51.956;5.876;2024-02-26T14:23:23;8.07;;;6.30;;
73113;SDS011;61301;51.956;5.876;2024-02-26T14:25:49;8.30;;;6.72;;
73113;SDS011;61301;51.956;5.876;2024-02-26T14:28:15;6.97;;;5.70;;
73113;SDS011;61301;51.956;5.876;2024-02-26T14:30:41;7.97;;;6.68;;
73113;SDS011;61301;51.956;5.876;2024-02-26T14:33:07;7.32;;;6.25;;
73113;SDS011;61301;51.956;5.876;2024-02-26T14:35:35;8.07;;;6.47;;
73113;SDS011;61301;51.956;5.876;2024-02-26T14:38:06;9.95;;;6.72;;
73113;SDS011;61301;51.956;5.876;2024-02-26T14:40:32;10.70;;;7.20;;
73113;SDS011;61301;51.956;5.876;2024-02-26T14:42:59;8.55;;;6.93;;
73113;SDS011;61301;51.956;5.876;2024-02-26T14:45:26;8.85;;;6.95;;
73113;SDS011;61301;51.956;5.876;2024-02-26T14:47:52;7.60;;;6.40;;
73113;SDS011;61301;51.956;5.876;2024-02-26T14:50:18;7.43;;;6.20;;
73113;SDS011;61301;51.956;5.876;2024-02-26T14:52:44;7.10;;;6.22;;
73113;SDS011;61301;51.956;5.876;2024-02-26T14:55:10;8.55;;;6.18;;
73113;SDS011;61301;51.956;5.876;2024-02-26T14:57:36;7.57;;;6.30;;
73113;SDS011;61301;51.956;5.876;2024-02-26T15:00:02;6.85;;;5.05;;